Time;durP1;ratioP1;P1;durP2;ratioP2;P2;SDS_P1;SDS_P2;PMS_P1;PMS_P2;Temp;Humidity;BMP_temperature;BMP_pressure;BME280_temperature;BME280_humidity;BME280_pressure;Samples;Min_cycle;Max_cycle;Signal;HPM_P1;HPM_P2
2023/01/02 00:01:46;;;;;;;12.05;6.88;;;6.10;78.80;;;;;;5112829;28;20242;-62
2023/01/02 00:04:13;;;;;;;12.95;6.93;;;6.10;78.60;;;;;;5112480;28;20279;-66
2023/01/02 00:06:40;;;;;;;11.63;7.47;;;6.10;78.50;;;;;;5112478;28;20224;-63
2023/01/02 00:09:08;;;;;;;11.45;7.18;;;6.00;78.10;;;;;;5112462;28;20196;-63
2023/01/02 00:11:37;;;;;;;13.60;6.93;;;6.00;77.70;;;;;;5116022;28;20253;-63
2023/01/02 00:14:04;;;;;;;10.73;6.88;;;6.00;77.80;;;;;;5116374;27;20280;-63
2023/01/02 00:16:31;;;;;;;13.93;7.28;;;5.90;78.10;;;;;;5115880;28;20230;-63
2023/01/02 00:18:58;;;;;;;12.68;7.82;;;5.80;79.70;;;;;;5116339;28;20595;-62
2023/01/02 00:21:24;;;;;;;10.55;6.70;;;5.80;80.10;;;;;;5116103;28;20279;-62
2023/01/02 00:23:51;;;;;;;14.35;7.45;;;5.80;80.20;;;;;;5116109;28;20192;-62
2023/01/02 00:26:18;;;;;;;12.20;7.13;;;5.80;79.90;;;;;;5115966;28;20536;-65
2023/01/02 00:28:47;;;;;;;15.65;7.07;;;5.80;79.20;;;;;;5115869;28;20275;-62
2023/01/02 00:31:14;;;;;;;11.95;6.75;;;5.80;80.20;;;;;;5115939;27;20280;-62
2023/01/02 00:33:42;;;;;;;14.85;7.50;;;5.80;80.50;;;;;;5115854;28;20192;-62
2023/01/02 00:36:10;;;;;;;12.20;7.38;;;5.80;80.70;;;;;;5115418;28;20293;-63
2023/01/02 00:38:38;;;;;;;10.07;6.28;;;5.80;81.10;;;;;;5115755;27;20248;-63
2023/01/02 00:41:05;;;;;;;10.00;5.93;;;5.80;81.80;;;;;;5115853;28;20231;-62
2023/01/02 00:43:32;;;;;;;7.10;5.22;;;5.90;81.60;;;;;;5115511;28;20238;-62
2023/01/02 00:46:01;;;;;;;8.27;5.82;;;5.90;81.80;;;;;;5115592;28;20239;-64
2023/01/02 00:48:28;;;;;;;10.95;6.25;;;5.90;81.10;;;;;;5115602;28;20699;-62
2023/01/02 00:50:55;;;;;;;7.32;5.00;;;6.00;80.90;;;;;;5115568;28;20923;-62
2023/01/02 00:53:22;;;;;;;7.50;4.65;;;5.90;82.40;;;;;;5115756;28;20283;-62
2023/01/02 00:55:49;;;;;;;6.45;5.03;;;5.80;83.70;;;;;;5115547;28;20668;-62
2023/01/02 00:58:15;;;;;;;8.32;4.93;;;5.90;83.90;;;;;;5115501;28;20275;-62
2023/01/02 01:00:43;;;;;;;9.48;5.60;;;5.90;83.40;;;;;;5115447;28;20223;-62
2023/01/02 01:03:11;;;;;;;9.23;5.43;;;5.90;82.90;;;;;;5115227;28;20188;-63
2023/01/02 01:05:39;;;;;;;8.50;4.82;;;6.00;82.20;;;;;;5115416;28;20220;-63
2023/01/02 01:08:06;;;;;;;8.55;5.22;;;6.00;81.50;;;;;;5115263;28;20188;-62
2023/01/02 01:10:35;;;;;;;9.40;5.85;;;6.00;82.30;;;;;;5114763;28;20196;-63
2023/01/02 01:13:02;;;;;;;6.78;3.40;;;6.00;82.50;;;;;;5115134;28;20192;-62
2023/01/02 01:15:29;;;;;;;7.03;3.78;;;6.10;82.90;;;;;;5115116;28;20270;-63
2023/01/02 01:17:56;;;;;;;6.00;4.07;;;6.10;83.30;;;;;;5115370;28;20242;-62
2023/01/02 01:20:25;;;;;;;6.35;3.90;;;6.10;82.70;;;;;;5114869;28;20304;-62
2023/01/02 01:22:52;;;;;;;7.38;3.95;;;6.10;82.70;;;;;;5114388;28;20560;-62
2023/01/02 01:25:19;;;;;;;8.15;4.25;;;6.20;82.30;;;;;;5115088;28;20219;-62
2023/01/02 01:27:46;;;;;;;7.82;4.50;;;6.20;82.70;;;;;;5114868;28;20586;-63
2023/01/02 01:30:13;;;;;;;8.30;4.15;;;6.20;81.80;;;;;;5114824;28;20188;-62
2023/01/02 01:32:40;;;;;;;8.23;4.63;;;6.20;80.40;;;;;;5114498;28;20196;-63
2023/01/02 01:35:08;;;;;;;7.07;4.18;;;6.20;79.70;;;;;;5114189;27;20283;-62
2023/01/02 01:37:38;;;;;;;7.30;4.25;;;6.10;79.40;;;;;;5114666;28;20224;-63
2023/01/02 01:40:07;;;;;;;11.80;4.53;;;6.10;79.30;;;;;;5114174;28;20218;-63
2023/01/02 01:42:34;;;;;;;6.32;4.03;;;6.10;78.90;;;;;;5114487;28;20634;-63
2023/01/02 01:45:02;;;;;;;7.25;4.55;;;6.00;78.40;;;;;;5114532;28;20596;-62
2023/01/02 01:47:45;;;;;;;10.40;4.72;;;5.90;78.60;;;;;;5114515;28;20188;-64
2023/01/02 01:50:16;;;;;;;12.35;6.30;;;5.80;78.80;;;;;;5114172;28;20196;-62
2023/01/02 01:52:49;;;;;;;12.40;6.40;;;5.80;79.30;;;;;;5114302;28;20241;-62
2023/01/02 01:55:19;;;;;;;10.80;5.00;;;5.70;79.60;;;;;;5114252;28;20212;-62
2023/01/02 01:57:50;;;;;;;12.13;5.75;;;5.70;79.40;;;;;;5114242;28;20235;-63
2023/01/02 02:00:18;;;;;;;6.65;4.53;;;5.60;79.80;;;;;;5113945;28;20566;-63
2023/01/02 02:02:47;;;;;;;7.13;4.53;;;5.50;79.40;;;;;;5114262;28;20279;-64
2023/01/02 02:05:19;;;;;;;8.15;4.82;;;5.50;79.00;;;;;;5114032;28;20228;-62
2023/01/02 02:07:54;;;;;;;6.53;3.60;;;5.40;79.80;;;;;;5114163;28;20195;-63
2023/01/02 02:10:21;;;;;;;10.93;4.30;;;5.40;79.80;;;;;;5114215;28;20198;-63
2023/01/02 02:12:48;;;;;;;9.45;4.95;;;5.40;79.70;;;;;;5113622;28;20228;-63
2023/01/02 02:15:21;;;;;;;7.30;4.00;;;5.30;79.60;;;;;;5113912;28;20184;-62
2023/01/02 02:17:58;;;;;;;6.45;4.05;;;5.30;80.00;;;;;;5113973;28;20227;-62
2023/01/02 02:20:42;;;;;;;8.07;3.83;;;5.30;80.30;;;;;;5113807;28;20612;-62
2023/01/02 02:23:41;;;;;;;11.32;4.53;;;5.30;81.10;;;;;;5113292;28;20188;-62
2023/01/02 02:26:54;;;;;;;4.90;3.35;;;5.30;81.20;;;;;;5113372;28;20245;-63
2023/01/02 02:30:02;;;;;;;7.72;4.82;;;5.30;80.00;;;;;;5113885;28;20200;-62
2023/01/02 02:32:39;;;;;;;6.15;3.50;;;5.30;80.60;;;;;;5113096;28;20209;-63
2023/01/02 02:35:14;;;;;;;6.18;3.95;;;5.20;80.50;;;;;;5112238;28;20310;-63
2023/01/02 02:37:50;;;;;;;5.00;4.10;;;5.20;80.80;;;;;;5113504;28;20256;-63
2023/01/02 02:40:24;;;;;;;6.88;4.22;;;5.20;81.20;;;;;;5113028;28;20239;-62
2023/01/02 02:43:01;;;;;;;7.25;3.70;;;5.30;81.40;;;;;;5113372;28;20218;-62
2023/01/02 02:45:39;;;;;;;6.50;4.13;;;5.20;81.40;;;;;;5113564;28;20310;-62
2023/01/02 02:48:16;;;;;;;5.68;3.53;;;5.20;80.60;;;;;;5113598;28;20245;-64
2023/01/02 02:50:49;;;;;;;6.95;3.20;;;5.20;81.50;;;;;;5113263;28;20703;-62
2023/01/02 02:53:22;;;;;;;9.07;4.15;;;5.20;81.70;;;;;;5113450;28;20283;-62
2023/01/02 02:55:52;;;;;;;7.60;3.60;;;5.10;81.80;;;;;;5113340;28;20261;-62
2023/01/02 02:58:22;;;;;;;4.30;2.70;;;5.10;82.60;;;;;;5113324;28;20338;-62
2023/01/02 03:00:50;;;;;;;5.22;3.65;;;5.20;83.70;;;;;;5113358;28;20223;-62
2023/01/02 03:03:20;;;;;;;4.38;2.90;;;5.20;83.50;;;;;;5113253;28;20184;-62
2023/01/02 03:06:02;;;;;;;5.15;3.05;;;5.20;82.80;;;;;;5113173;28;20678;-62
2023/01/02 03:08:37;;;;;;;5.57;3.30;;;5.20;82.80;;;;;;5112959;28;20196;-63
2023/01/02 03:11:04;;;;;;;6.18;3.08;;;5.20;82.90;;;;;;5113083;28;20237;-63
2023/01/02 03:13:43;;;;;;;5.50;2.83;;;5.30;82.40;;;;;;5112692;28;20283;-63
2023/01/02 03:16:18;;;;;;;5.15;2.97;;;5.30;81.70;;;;;;5113083;28;20195;-63
2023/01/02 03:18:53;;;;;;;4.95;2.10;;;5.20;80.70;;;;;;5112853;28;20187;-62
2023/01/02 03:21:27;;;;;;;4.78;2.67;;;5.10;81.00;;;;;;5112503;28;20565;-62
2023/01/02 03:23:57;;;;;;;3.65;2.20;;;5.10;81.60;;;;;;5112807;28;20185;-63
2023/01/02 03:26:29;;;;;;;4.95;3.22;;;5.10;80.90;;;;;;5113137;28;20192;-61
2023/01/02 03:29:03;;;;;;;4.95;2.83;;;4.90;82.00;;;;;;5112528;28;20631;-62
2023/01/02 03:31:36;;;;;;;4.80;2.72;;;4.90;82.90;;;;;;5112963;28;20192;-63
2023/01/02 03:34:08;;;;;;;3.45;2.50;;;5.00;83.10;;;;;;5112757;28;20180;-64
2023/01/02 03:36:37;;;;;;;5.30;2.72;;;5.00;83.00;;;;;;5112793;28;20299;-62
2023/01/02 03:39:09;;;;;;;3.72;2.10;;;5.00;83.20;;;;;;5112680;28;20189;-62
2023/01/02 03:41:41;;;;;;;3.72;2.45;;;4.90;84.10;;;;;;5112838;28;20654;-62
2023/01/02 03:44:10;;;;;;;3.95;2.20;;;4.90;85.30;;;;;;5112600;28;20224;-63
2023/01/02 03:46:48;;;;;;;5.20;3.40;;;4.70;86.80;;;;;;5116418;28;20193;-62
2023/01/02 03:49:21;;;;;;;4.13;2.30;;;4.70;87.30;;;;;;5116575;28;20264;-63
2023/01/02 03:51:49;;;;;;;3.90;2.50;;;4.80;87.40;;;;;;5116806;28;20228;-62
2023/01/02 03:54:17;;;;;;;4.45;2.53;;;4.90;87.20;;;;;;5116525;28;20234;-64
2023/01/02 03:56:56;;;;;;;3.92;2.42;;;4.90;86.50;;;;;;5116472;28;20197;-62
2023/01/02 03:59:32;;;;;;;3.92;2.60;;;4.90;85.60;;;;;;5116440;28;20208;-62
2023/01/02 04:02:06;;;;;;;4.25;2.45;;;4.90;85.80;;;;;;5116730;28;20188;-63
2023/01/02 04:04:40;;;;;;;4.32;2.30;;;4.90;85.80;;;;;;5116739;28;20275;-62
2023/01/02 04:07:12;;;;;;;6.05;2.60;;;4.90;85.60;;;;;;5116757;28;20234;-63
2023/01/02 04:09:41;;;;;;;4.40;2.55;;;4.90;85.60;;;;;;5116608;28;20192;-63
2023/01/02 04:12:11;;;;;;;3.95;2.47;;;5.00;85.70;;;;;;5116670;28;20192;-63
2023/01/02 04:14:43;;;;;;;2.80;1.85;;;5.00;85.20;;;;;;5116572;28;20291;-63
2023/01/02 04:17:14;;;;;;;4.15;2.60;;;4.90;84.60;;;;;;5116449;28;20184;-63
2023/01/02 04:19:45;;;;;;;4.00;2.30;;;4.90;84.10;;;;;;5116327;28;20262;-62
2023/01/02 04:22:17;;;;;;;3.42;2.15;;;4.90;83.70;;;;;;5116367;28;20566;-63
2023/01/02 04:24:49;;;;;;;3.40;2.20;;;4.90;83.60;;;;;;5116353;28;20214;-62
2023/01/02 04:27:22;;;;;;;7.35;2.38;;;4.80;83.40;;;;;;5116312;28;20231;-63
2023/01/02 04:29:49;;;;;;;5.15;2.75;;;4.80;83.70;;;;;;5116319;28;20192;-62
2023/01/02 04:32:23;;;;;;;4.72;2.80;;;4.70;83.30;;;;;;5115643;28;20194;-63
2023/01/02 04:34:50;;;;;;;4.75;3.20;;;4.60;83.50;;;;;;5115547;28;20260;-63
2023/01/02 04:37:29;;;;;;;3.80;2.97;;;4.60;83.70;;;;;;5115978;28;20569;-62
2023/01/02 04:39:59;;;;;;;6.40;3.40;;;4.60;83.40;;;;;;5116096;28;20252;-63
2023/01/02 04:42:26;;;;;;;5.80;3.58;;;4.60;84.10;;;;;;5116514;28;20279;-62
2023/01/02 04:44:53;;;;;;;5.68;3.20;;;4.70;84.20;;;;;;5116000;28;20282;-62
2023/01/02 04:47:21;;;;;;;5.50;3.30;;;4.80;84.10;;;;;;5115974;28;20707;-62
2023/01/02 04:49:48;;;;;;;4.30;2.53;;;4.80;83.80;;;;;;5115789;28;20234;-62
2023/01/02 04:52:15;;;;;;;5.90;3.30;;;4.70;83.50;;;;;;5115445;28;20611;-62
2023/01/02 04:54:42;;;;;;;3.22;2.35;;;4.70;83.40;;;;;;5115576;28;20223;-62
2023/01/02 04:57:09;;;;;;;5.95;2.53;;;4.70;83.60;;;;;;5114421;28;20296;-64
2023/01/02 04:59:36;;;;;;;4.72;2.17;;;4.70;84.00;;;;;;5115610;28;20579;-63
2023/01/02 05:02:03;;;;;;;4.78;2.45;;;4.70;84.20;;;;;;5115390;28;20283;-62
2023/01/02 05:04:31;;;;;;;4.55;2.90;;;4.70;84.10;;;;;;5115449;28;20238;-63
2023/01/02 05:06:58;;;;;;;7.80;4.63;;;4.70;83.00;;;;;;5115765;28;20227;-63
2023/01/02 05:09:26;;;;;;;7.45;3.83;;;4.70;82.80;;;;;;5115342;28;20279;-62
2023/01/02 05:11:53;;;;;;;7.40;4.18;;;4.60;82.80;;;;;;5115444;28;20616;-62
2023/01/02 05:14:20;;;;;;;6.00;3.75;;;4.60;83.20;;;;;;5115466;28;20188;-62
2023/01/02 05:16:47;;;;;;;21.05;9.02;;;4.60;83.50;;;;;;5115257;28;20202;-62
2023/01/02 05:19:14;;;;;;;8.07;4.05;;;4.60;83.10;;;;;;5115476;28;20584;-62
2023/01/02 05:24:26;;;;;;;10.93;4.53;;;4.50;82.90;;;;;;5115571;28;20264;-62
2023/01/02 05:26:54;;;;;;;8.68;3.78;;;4.40;83.10;;;;;;5115163;28;20283;-62
2023/01/02 05:29:21;;;;;;;6.88;3.75;;;4.40;83.10;;;;;;5114800;28;20195;-62
2023/01/02 05:31:48;;;;;;;6.97;3.05;;;4.40;82.80;;;;;;5115161;28;20206;-62
2023/01/02 05:34:15;;;;;;;6.53;3.72;;;4.40;83.10;;;;;;5114862;28;20189;-62
2023/01/02 05:36:44;;;;;;;6.70;3.58;;;4.30;82.90;;;;;;5114777;28;20223;-62
2023/01/02 05:39:12;;;;;;;5.10;3.05;;;4.30;83.80;;;;;;5114723;28;20189;-62
2023/01/02 05:41:40;;;;;;;6.28;3.10;;;4.30;84.00;;;;;;5114840;28;20216;-63
2023/01/02 05:44:08;;;;;;;6.15;4.22;;;4.20;84.10;;;;;;5114884;28;20188;-62
2023/01/02 05:46:36;;;;;;;9.43;4.75;;;4.20;84.10;;;;;;5114556;28;20655;-63
2023/01/02 05:49:04;;;;;;;10.32;4.30;;;4.20;85.80;;;;;;5114433;28;20196;-63
2023/01/02 05:51:31;;;;;;;9.30;4.00;;;4.10;86.60;;;;;;5114654;27;20283;-63
2023/01/02 05:54:00;;;;;;;6.45;3.67;;;4.20;86.60;;;;;;5114583;28;20228;-63
2023/01/02 05:56:29;;;;;;;7.95;3.47;;;4.20;86.10;;;;;;5114773;28;20232;-62
2023/01/02 05:58:56;;;;;;;6.20;3.25;;;4.20;85.40;;;;;;5114707;28;20227;-62
2023/01/02 06:01:25;;;;;;;6.40;3.40;;;4.30;85.10;;;;;;5114460;28;20307;-62
2023/01/02 06:03:54;;;;;;;8.40;4.03;;;4.30;85.20;;;;;;5114493;28;20646;-63
2023/01/02 06:06:24;;;;;;;7.40;4.72;;;4.20;85.40;;;;;;5114360;28;20188;-62
2023/01/02 06:08:51;;;;;;;6.55;5.20;;;4.20;85.00;;;;;;5114206;28;20596;-62
2023/01/02 06:11:19;;;;;;;6.30;4.00;;;4.10;84.60;;;;;;5114396;28;20196;-62
2023/01/02 06:13:46;;;;;;;10.95;4.90;;;4.10;84.70;;;;;;5114171;28;20670;-62
2023/01/02 06:16:13;;;;;;;6.80;4.60;;;4.10;84.70;;;;;;5114118;28;20283;-62
2023/01/02 06:18:41;;;;;;;7.40;4.35;;;4.10;84.40;;;;;;5113794;28;20275;-63
2023/01/02 06:21:09;;;;;;;5.43;3.42;;;4.10;84.10;;;;;;5113777;28;20311;-62
2023/01/02 06:23:37;;;;;;;7.60;3.55;;;4.10;84.50;;;;;;5113900;27;20228;-62
2023/01/02 06:26:06;;;;;;;5.70;3.90;;;4.00;84.60;;;;;;5113834;28;20228;-62
2023/01/02 06:28:35;;;;;;;5.43;2.60;;;4.00;84.90;;;;;;5114208;28;20192;-62
2023/01/02 06:31:03;;;;;;;8.15;4.30;;;4.10;85.20;;;;;;5113749;28;20276;-63
2023/01/02 06:33:31;;;;;;;7.57;5.13;;;4.20;84.90;;;;;;5113853;28;20576;-62
2023/01/02 06:35:59;;;;;;;12.38;6.00;;;4.10;84.20;;;;;;5113693;28;20220;-62
2023/01/02 06:38:26;;;;;;;9.07;5.55;;;4.10;84.40;;;;;;5113765;28;20192;-62
2023/01/02 06:40:54;;;;;;;9.75;5.82;;;4.00;84.70;;;;;;5113836;28;20315;-62
2023/01/02 06:43:22;;;;;;;14.73;9.27;;;4.00;85.10;;;;;;5113636;28;20279;-62
2023/01/02 06:45:51;;;;;;;15.45;9.18;;;4.00;85.20;;;;;;5113720;27;20605;-62
2023/01/02 06:48:20;;;;;;;15.45;7.65;;;4.00;84.90;;;;;;5113104;28;20224;-62
2023/01/02 06:50:47;;;;;;;10.65;6.03;;;4.00;84.90;;;;;;5113418;28;20237;-63
2023/01/02 06:53:14;;;;;;;9.55;5.18;;;4.00;85.00;;;;;;5113706;28;20275;-62
2023/01/02 06:55:50;;;;;;;8.50;5.55;;;4.00;85.30;;;;;;5113796;28;20238;-62
2023/01/02 06:58:17;;;;;;;8.80;6.00;;;4.00;85.40;;;;;;5113469;28;20227;-62
2023/01/02 07:00:44;;;;;;;13.45;6.63;;;4.00;84.00;;;;;;5112998;28;20220;-62
2023/01/02 07:03:13;;;;;;;11.82;6.90;;;4.00;83.70;;;;;;5113465;28;20199;-62
2023/01/02 07:05:40;;;;;;;11.32;5.90;;;4.00;84.10;;;;;;5113404;28;20219;-62
2023/01/02 07:08:07;;;;;;;8.63;5.82;;;3.90;84.50;;;;;;5112977;28;20283;-62
2023/01/02 07:10:34;;;;;;;11.45;7.47;;;3.90;83.70;;;;;;5113243;28;20222;-63
2023/01/02 07:13:01;;;;;;;17.08;8.90;;;3.90;84.40;;;;;;5113386;28;20246;-63
2023/01/02 07:15:28;;;;;;;9.70;6.63;;;4.00;85.00;;;;;;5113449;28;20188;-65
2023/01/02 07:17:55;;;;;;;15.98;10.20;;;4.00;84.30;;;;;;5113704;28;20214;-62
2023/01/02 07:20:24;;;;;;;24.45;10.05;;;4.00;84.50;;;;;;5114650;28;20279;-62
2023/01/02 07:22:51;;;;;;;23.35;11.55;;;4.10;85.20;;;;;;5117606;28;20662;-62
2023/01/02 07:25:19;;;;;;;15.73;8.63;;;4.10;85.00;;;;;;5117553;28;20240;-62
2023/01/02 07:27:46;;;;;;;18.27;10.60;;;4.10;85.00;;;;;;5117604;28;20206;-63
2023/01/02 07:30:14;;;;;;;19.98;12.13;;;4.20;85.60;;;;;;5116961;28;20283;-62
2023/01/02 07:32:42;;;;;;;15.73;11.65;;;4.30;84.90;;;;;;5117476;28;20184;-62
2023/01/02 07:35:10;;;;;;;20.40;11.77;;;4.60;84.50;;;;;;5117158;28;20228;-62
2023/01/02 07:37:38;;;;;;;13.38;10.85;;;4.90;85.20;;;;;;5117229;28;20195;-62
2023/01/02 07:40:06;;;;;;;12.20;9.45;;;5.10;82.20;;;;;;5114736;28;20220;-63
2023/01/02 07:42:33;;;;;;;13.35;10.15;;;5.40;82.00;;;;;;5112492;28;20300;-63
2023/01/02 07:45:00;;;;;;;14.05;10.60;;;5.60;81.30;;;;;;5115389;28;20234;-65
2023/01/02 07:47:27;;;;;;;13.65;9.40;;;5.80;80.20;;;;;;5114506;28;20181;-62
2023/01/02 07:49:54;;;;;;;9.27;8.23;;;5.80;78.90;;;;;;5114495;28;20195;-63
2023/01/02 07:52:22;;;;;;;13.13;8.80;;;6.00;79.10;;;;;;5114554;28;20746;-64
2023/01/02 07:54:51;;;;;;;10.65;7.93;;;6.30;78.10;;;;;;5110527;28;20188;-62
2023/01/02 07:57:18;;;;;;;13.32;10.05;;;6.40;77.50;;;;;;5114475;28;20722;-62
2023/01/02 07:59:45;;;;;;;10.15;7.07;;;6.60;76.50;;;;;;5114271;28;20230;-61
2023/01/02 08:02:13;;;;;;;8.35;7.55;;;6.70;77.00;;;;;;5113971;28;20234;-63
2023/01/02 08:04:40;;;;;;;9.52;7.68;;;6.80;77.20;;;;;;5114266;28;20195;-62
2023/01/02 08:07:09;;;;;;;9.25;6.97;;;6.90;76.30;;;;;;5114283;28;20197;-63
2023/01/02 08:09:36;;;;;;;10.23;8.95;;;6.90;75.30;;;;;;5114207;28;20197;-64
2023/01/02 08:12:05;;;;;;;13.43;9.88;;;6.90;75.40;;;;;;5114321;28;20188;-63
2023/01/02 08:14:33;;;;;;;17.98;9.00;;;6.90;75.60;;;;;;5114412;27;20196;-63
2023/01/02 08:17:00;;;;;;;10.50;9.40;;;6.90;75.90;;;;;;5114452;28;20224;-62
2023/01/02 08:19:27;;;;;;;13.70;8.48;;;6.90;76.50;;;;;;5113959;28;20208;-65
2023/01/02 08:21:55;;;;;;;11.38;7.22;;;6.90;77.00;;;;;;5113963;28;20220;-63
2023/01/02 08:24:22;;;;;;;7.80;6.30;;;6.90;76.90;;;;;;5114365;28;20200;-62
2023/01/02 08:26:49;;;;;;;9.95;8.63;;;6.90;77.70;;;;;;5114274;28;20195;-62
2023/01/02 08:29:18;;;;;;;13.85;9.32;;;7.00;77.90;;;;;;5113767;28;20188;-61
2023/01/02 08:31:45;;;;;;;18.15;13.80;;;7.00;78.10;;;;;;5113948;28;20224;-62
2023/01/02 08:34:13;;;;;;;15.07;11.90;;;7.00;78.10;;;;;;5114266;28;20191;-61
2023/01/02 08:36:41;;;;;;;14.18;11.13;;;7.00;78.10;;;;;;5114234;28;20315;-63
2023/01/02 08:39:08;;;;;;;12.93;9.60;;;7.10;78.90;;;;;;5110905;28;20189;-61
2023/01/02 08:41:38;;;;;;;16.27;10.68;;;7.20;79.00;;;;;;5113918;28;20216;-61
2023/01/02 08:44:05;;;;;;;11.82;8.38;;;7.50;79.20;;;;;;5113962;28;20283;-62
2023/01/02 08:46:35;;;;;;;8.27;6.47;;;7.70;79.00;;;;;;5112953;28;20283;-62
2023/01/02 08:49:02;;;;;;;6.85;5.13;;;7.90;78.80;;;;;;5114052;28;20192;-63
2023/01/02 08:51:29;;;;;;;6.13;4.72;;;8.30;78.00;;;;;;5114398;28;20212;-64
2023/01/02 08:53:56;;;;;;;6.15;4.95;;;8.80;76.40;;;;;;5114319;28;20192;-63
2023/01/02 08:56:25;;;;;;;7.53;4.80;;;9.30;75.20;;;;;;5113904;28;20193;-62
2023/01/02 08:58:53;;;;;;;8.23;6.57;;;9.70;73.00;;;;;;5114082;28;20575;-63
2023/01/02 09:01:21;;;;;;;8.73;7.60;;;10.10;70.10;;;;;;5110604;28;20315;-63
2023/01/02 09:03:50;;;;;;;12.30;8.60;;;10.20;69.80;;;;;;5113319;28;20281;-63
2023/01/02 09:06:18;;;;;;;10.75;7.22;;;10.30;69.00;;;;;;5110115;28;20238;-63
2023/01/02 09:08:45;;;;;;;10.80;6.90;;;10.50;68.90;;;;;;5113316;28;20202;-64
2023/01/02 09:11:13;;;;;;;10.27;6.00;;;10.70;68.50;;;;;;5106240;28;20218;-69
2023/01/02 09:13:41;;;;;;;8.45;6.07;;;11.00;68.70;;;;;;5111497;28;20194;-63
2023/01/02 09:16:12;;;;;;;5.30;4.45;;;11.40;68.20;;;;;;5113511;28;20278;-63
2023/01/02 09:18:40;;;;;;;25.17;5.28;;;11.90;67.10;;;;;;5112673;28;20591;-63
2023/01/02 09:21:09;;;;;;;6.45;4.25;;;12.30;65.90;;;;;;5111730;28;20243;-66
2023/01/02 09:23:36;;;;;;;8.45;4.50;;;12.70;65.50;;;;;;5105424;28;20583;-64
2023/01/02 09:26:05;;;;;;;5.45;3.75;;;13.10;65.70;;;;;;5112885;28;20220;-64
2023/01/02 09:28:34;;;;;;;6.73;4.77;;;13.50;64.00;;;;;;5112967;28;20213;-65
2023/01/02 09:31:05;;;;;;;4.88;3.88;;;13.90;63.20;;;;;;5105005;28;20513;-64
2023/01/02 09:33:33;;;;;;;5.67;3.67;;;14.30;62.30;;;;;;5109329;28;20184;-64
2023/01/02 09:36:01;;;;;;;7.83;4.13;;;14.70;61.20;;;;;;5111144;28;20796;-65
2023/01/02 09:38:30;;;;;;;7.20;5.13;;;15.00;57.70;;;;;;5110287;28;20426;-63
2023/01/02 09:41:00;;;;;;;7.00;5.40;;;15.40;58.30;;;;;;5111475;28;20430;-63
2023/01/02 09:43:31;;;;;;;7.97;5.53;;;15.80;56.80;;;;;;5111386;28;20522;-64
2023/01/02 09:46:02;;;;;;;8.40;5.00;;;16.20;54.80;;;;;;5108816;28;20427;-64
2023/01/02 09:48:33;;;;;;;6.17;4.23;;;16.50;52.70;;;;;;5111333;28;20511;-64
2023/01/02 09:51:01;;;;;;;7.23;3.93;;;16.50;51.70;;;;;;5111465;28;20465;-65
2023/01/02 09:53:31;;;;;;;6.37;4.50;;;16.90;51.80;;;;;;5109064;28;20984;-64
2023/01/02 09:56:04;;;;;;;9.07;4.97;;;17.30;51.70;;;;;;5108905;28;20541;-64
2023/01/02 09:58:40;;;;;;;7.80;4.27;;;17.60;50.10;;;;;;5110214;28;20513;-66
2023/01/02 10:01:13;;;;;;;6.13;4.33;;;18.00;50.40;;;;;;5109451;28;20474;-64
2023/01/02 10:03:47;;;;;;;5.03;3.47;;;18.40;47.80;;;;;;5110257;28;20529;-66
2023/01/02 10:06:17;;;;;;;12.77;5.03;;;18.80;47.40;;;;;;5110785;28;20461;-64
2023/01/02 10:08:57;;;;;;;9.10;4.70;;;19.10;47.30;;;;;;5109760;28;20438;-64
2023/01/02 10:11:43;;;;;;;10.13;4.97;;;19.40;47.30;;;;;;5107546;28;20438;-62
2023/01/02 10:14:17;;;;;;;7.90;3.33;;;19.70;45.70;;;;;;5110063;28;20940;-62
2023/01/02 10:16:48;;;;;;;4.77;2.80;;;20.10;44.00;;;;;;5109050;28;20437;-62
2023/01/02 10:19:20;;;;;;;5.00;2.93;;;20.50;44.90;;;;;;5109601;27;20434;-64
2023/01/02 10:21:53;;;;;;;5.80;3.07;;;20.90;41.40;;;;;;5111364;27;20493;-62
2023/01/02 10:24:27;;;;;;;9.00;2.50;;;21.20;43.80;;;;;;5095847;28;21339;-67
2023/01/02 10:26:54;;;;;;;5.20;2.67;;;21.60;42.90;;;;;;5102020;28;20942;-63
2023/01/02 10:29:28;;;;;;;3.50;2.07;;;22.10;40.80;;;;;;5110012;28;20500;-64
2023/01/02 10:32:00;;;;;;;3.73;2.27;;;22.20;40.30;;;;;;5109387;28;20446;-64
2023/01/02 10:34:34;;;;;;;3.10;1.70;;;22.20;40.10;;;;;;5107662;28;20438;-63
2023/01/02 10:37:01;;;;;;;6.13;1.80;;;22.10;39.00;;;;;;5109476;28;20450;-63
2023/01/02 10:39:32;;;;;;;2.97;1.87;;;22.00;38.50;;;;;;5107503;28;20466;-63
2023/01/02 10:42:00;;;;;;;3.90;2.07;;;21.90;38.60;;;;;;5109555;28;20505;-63
2023/01/02 10:44:31;;;;;;;3.07;1.53;;;21.80;35.90;;;;;;5109305;27;20442;-63
2023/01/02 10:47:06;;;;;;;4.93;2.00;;;21.70;37.10;;;;;;5109202;28;20529;-62
2023/01/02 10:49:36;;;;;;;4.00;2.30;;;21.80;38.90;;;;;;5110135;28;20437;-63
2023/01/02 10:52:07;;;;;;;3.13;2.03;;;22.00;39.00;;;;;;5109717;28;20453;-66
2023/01/02 10:54:50;;;;;;;5.60;2.73;;;22.10;38.40;;;;;;5109977;28;20438;-64
2023/01/02 10:57:24;;;;;;;4.57;2.60;;;22.00;38.40;;;;;;5109475;28;20469;-63
2023/01/02 10:59:57;;;;;;;4.80;2.47;;;22.00;39.10;;;;;;5108385;28;20470;-64
2023/01/02 11:02:29;;;;;;;4.40;2.00;;;22.00;38.90;;;;;;5110237;28;20493;-64
2023/01/02 11:05:01;;;;;;;5.00;1.87;;;21.90;37.50;;;;;;5107041;28;20928;-63
2023/01/02 11:07:33;;;;;;;4.03;2.13;;;21.60;38.00;;;;;;5107841;28;20454;-68
2023/01/02 11:10:02;;;;;;;2.73;1.70;;;21.50;39.50;;;;;;5109482;28;20831;-64
2023/01/02 11:12:31;;;;;;;5.77;2.20;;;21.40;39.50;;;;;;5107715;28;20441;-64
2023/01/02 11:15:24;;;;;;;3.70;2.03;;;21.40;38.20;;;;;;5110076;28;20442;-63
2023/01/02 11:17:51;;;;;;;6.30;3.13;;;21.00;37.30;;;;;;5108296;28;20442;-63
2023/01/02 11:20:24;;;;;;;5.73;3.10;;;20.80;38.90;;;;;;5109216;28;20940;-65
2023/01/02 11:22:54;;;;;;;6.60;4.00;;;20.70;38.80;;;;;;5108253;28;20492;-63
2023/01/02 11:25:26;;;;;;;4.27;2.60;;;20.40;38.50;;;;;;5108611;28;20441;-64
2023/01/02 11:27:57;;;;;;;4.30;1.97;;;20.10;39.70;;;;;;5110001;28;20423;-63
2023/01/02 11:30:35;;;;;;;4.93;2.00;;;19.80;39.50;;;;;;5108951;28;20593;-65
2023/01/02 11:33:07;;;;;;;3.30;1.77;;;19.50;40.10;;;;;;5109610;28;20437;-63
2023/01/02 11:35:43;;;;;;;3.20;1.70;;;19.10;40.40;;;;;;5107276;28;20484;-64
2023/01/02 11:38:16;;;;;;;4.57;1.70;;;19.00;42.50;;;;;;5104490;28;20434;-65
2023/01/02 11:40:57;;;;;;;3.50;2.03;;;19.10;43.30;;;;;;5109595;28;21261;-63
2023/01/02 11:43:51;;;;;;;2.80;1.60;;;19.40;43.40;;;;;;5109286;28;20979;-63
2023/01/02 11:46:32;;;;;;;2.90;1.80;;;19.50;42.10;;;;;;5109813;28;20453;-63
2023/01/02 11:49:04;;;;;;;3.53;1.50;;;19.40;42.20;;;;;;5109103;28;20429;-68
2023/01/02 11:51:35;;;;;;;3.10;1.60;;;19.10;42.90;;;;;;5108241;28;20902;-63
2023/01/02 11:54:05;;;;;;;5.13;1.90;;;18.90;43.30;;;;;;5109484;28;20449;-63
2023/01/02 11:56:37;;;;;;;4.70;2.63;;;18.60;43.80;;;;;;5108398;28;20985;-64
2023/01/02 11:59:12;;;;;;;5.37;2.00;;;18.50;45.10;;;;;;5109221;28;20801;-63
2023/01/02 12:01:52;;;;;;;3.70;2.20;;;18.30;44.90;;;;;;5108110;28;20441;-63
2023/01/02 12:04:20;;;;;;;3.77;2.30;;;18.30;44.80;;;;;;5109473;28;21016;-63
2023/01/02 12:07:16;;;;;;;2.13;1.20;;;18.40;44.30;;;;;;5111453;28;20445;-63
2023/01/02 12:09:56;;;;;;;3.10;1.80;;;18.40;43.70;;;;;;5112727;28;20521;-63
2023/01/02 12:12:54;;;;;;;2.37;1.40;;;18.40;44.10;;;;;;5111108;28;20521;-63
2023/01/02 12:15:44;;;;;;;3.30;1.60;;;18.50;43.50;;;;;;5111288;28;20441;-64
2023/01/02 12:18:26;;;;;;;3.57;1.33;;;18.50;43.10;;;;;;5112718;28;20438;-65
2023/01/02 12:21:03;;;;;;;4.30;3.30;;;18.50;42.70;;;;;;5113281;28;20448;-69
2023/01/02 12:23:57;;;;;;;3.00;2.40;;;18.60;43.30;;;;;;5111180;28;20491;-63
2023/01/02 12:26:31;;;;;;;4.33;2.67;;;18.60;42.60;;;;;;5110651;28;20440;-63
2023/01/02 12:29:19;;;;;;;4.73;1.80;;;18.70;42.60;;;;;;5112502;28;20445;-64
2023/01/02 12:32:03;;;;;;;3.23;1.20;;;18.70;42.00;;;;;;5110694;28;20900;-63
2023/01/02 12:34:50;;;;;;;3.00;1.47;;;18.70;42.40;;;;;;5109513;28;20440;-64
2023/01/02 12:37:31;;;;;;;2.73;1.43;;;18.60;41.80;;;;;;5112326;28;20452;-63
2023/01/02 12:40:22;;;;;;;3.60;1.33;;;18.50;42.40;;;;;;5111206;28;20434;-64
2023/01/02 12:43:03;;;;;;;3.80;1.10;;;18.50;42.60;;;;;;5110982;28;20547;-63
2023/01/02 12:45:40;;;;;;;3.10;1.50;;;18.40;42.40;;;;;;5110599;28;20521;-63
2023/01/02 12:48:22;;;;;;;3.50;1.83;;;18.30;42.20;;;;;;5110277;28;20446;-64
2023/01/02 12:51:14;;;;;;;2.93;1.47;;;18.10;41.90;;;;;;5111986;28;20491;-63
2023/01/02 12:53:54;;;;;;;2.77;1.77;;;18.00;42.30;;;;;;5109354;28;20434;-63
2023/01/02 12:56:33;;;;;;;4.13;1.90;;;17.80;44.30;;;;;;5112190;28;20450;-63
2023/01/02 12:59:16;;;;;;;4.37;1.90;;;17.60;43.10;;;;;;5111499;28;20793;-63
2023/01/02 13:01:54;;;;;;;2.90;1.40;;;17.40;43.80;;;;;;5110004;28;20820;-63
2023/01/02 13:04:25;;;;;;;2.90;1.37;;;17.20;44.10;;;;;;5111667;28;20962;-67
2023/01/02 13:07:00;;;;;;;4.70;1.90;;;17.10;44.30;;;;;;5111260;28;20912;-63
2023/01/02 13:09:30;;;;;;;4.00;2.13;;;17.00;44.40;;;;;;5109839;28;20446;-63
2023/01/02 13:12:08;;;;;;;4.60;1.63;;;16.90;44.50;;;;;;5113893;28;20536;-63
2023/01/02 13:14:41;;;;;;;4.33;2.80;;;16.70;44.80;;;;;;5109273;28;20943;-65